CheckWX is a tool to help pilots better visualize weather data.  It is not intended as a substitute for an official pre-flight weather briefing.

11:27:52 UTC

KLCG METAR
Wayne Municipal / Stan Morris Field Airport
Wayne, Nebraska, USA
Current

33 mins ago

KLCG 241055Z AUTO 00000KT 10SM CLR 12/10 A2975 RMK AO2 T01220100
Observed
Jun-24 @ 10:55 UTC
Visibility
10 SM
Flight Rules
VFR
Cloud Levels
  • Clear skies
Temperature
12°C / 54°F
Dewpoint
10°C / 50°F
Humidity
88%
Altimeter
29.75" Hg
Pressure
1007.42 hPa
Previous

53 mins ago

KLCG 241035Z AUTO 00000KT 10SM CLR 12/10 A2975 RMK AO2 T01190102
Observed
Jun-24 @ 10:35 UTC
Visibility
10 SM
Flight Rules
VFR
Cloud Levels
  • Clear skies
Temperature
12°C / 54°F
Dewpoint
10°C / 50°F
Humidity
88%
Altimeter
29.75" Hg
Pressure
1007.42 hPa
Previous

1 hour ago

KLCG 241015Z AUTO 29005KT 10SM CLR 12/10 A2975 RMK AO2 T01220103
Observed
Jun-24 @ 10:15 UTC
Wind
  • 290° at 5 KTS
Visibility
10 SM
Flight Rules
VFR
Cloud Levels
  • Clear skies
Temperature
12°C / 54°F
Dewpoint
10°C / 50°F
Humidity
88%
Altimeter
29.75" Hg
Pressure
1007.42 hPa